Time;durP1;ratioP1;P1;durP2;ratioP2;P2;SDS_P1;SDS_P2;PMS_P1;PMS_P2;Temp;Humidity;BMP_temperature;BMP_pressure;BME280_temperature;BME280_humidity;BME280_pressure;Samples;Min_cycle;Max_cycle;Signal;HPM_P1;HPM_P2
2023/03/26 00:02:06;;;;;;;49.55;14.47;;;;;;;9.20;73.41;100775.55;1902356;75;21552;-41
2023/03/26 00:04:34;;;;;;;48.50;16.07;;;;;;;9.18;73.57;100771.66;1902360;75;21058;-41
2023/03/26 00:07:04;;;;;;;39.20;13.15;;;;;;;9.17;73.71;100773.89;1902339;75;21132;-41
2023/03/26 00:09:32;;;;;;;44.67;14.15;;;;;;;9.14;73.80;100772.67;1902424;75;21504;-41
2023/03/26 00:12:01;;;;;;;37.15;13.90;;;;;;;9.13;74.04;100765.72;1902337;75;21046;-41
2023/03/26 00:14:29;;;;;;;45.58;13.35;;;;;;;9.14;74.07;100773.98;1902394;75;21127;-41
2023/03/26 00:16:58;;;;;;;44.63;13.83;;;;;;;9.18;74.06;100767.71;1902337;75;21054;-40
2023/03/26 00:19:27;;;;;;;45.67;15.93;;;;;;;9.21;74.00;100758.89;1902488;75;21067;-44
2023/03/26 00:21:56;;;;;;;47.38;15.48;;;;;;;9.22;73.94;100761.47;1902362;75;21117;-43
2023/03/26 00:24:28;;;;;;;35.20;13.50;;;;;;;9.24;74.03;100762.27;1902321;75;21131;-45
2023/03/26 00:26:55;;;;;;;48.85;16.55;;;;;;;9.25;74.13;100760.50;1902296;75;21042;-44
2023/03/26 00:29:26;;;;;;;52.45;15.32;;;;;;;9.25;74.06;100764.44;1902343;75;21057;-44
2023/03/26 00:31:54;;;;;;;52.17;15.32;;;;;;;9.23;74.12;100756.60;1902307;75;21030;-45
2023/03/26 00:34:23;;;;;;;55.30;17.20;;;;;;;9.24;74.18;100753.08;1902364;75;21524;-45
2023/03/26 00:37:01;;;;;;;58.87;17.52;;;;;;;9.22;74.45;100750.96;1902530;75;21586;-46
2023/03/26 00:39:26;;;;;;;52.05;16.87;;;;;;;9.21;74.40;100741.34;1902468;75;21041;-42
2023/03/26 00:41:55;;;;;;;62.43;16.90;;;;;;;9.23;74.31;100736.89;1902453;75;21531;-40
2023/03/26 00:44:24;;;;;;;68.57;20.60;;;;;;;9.26;74.36;100731.55;1902558;75;21082;-39
2023/03/26 00:46:52;;;;;;;72.90;18.37;;;;;;;9.27;74.32;100730.62;1902214;75;21209;-40
2023/03/26 00:49:21;;;;;;;75.32;20.32;;;;;;;9.29;74.24;100727.95;1902460;75;21086;-40
2023/03/26 00:51:50;;;;;;;61.92;18.27;;;;;;;9.28;74.35;100731.50;1902428;75;21546;-39
2023/03/26 00:54:19;;;;;;;71.05;19.27;;;;;;;9.28;74.36;100740.23;1902387;75;21034;-39
2023/03/26 00:56:48;;;;;;;70.10;19.55;;;;;;;9.30;74.26;100735.41;1902392;75;21097;-39
2023/03/26 00:59:16;;;;;;;73.05;19.32;;;;;;;9.26;74.26;100730.23;1896764;75;21086;-39
2023/03/26 01:01:45;;;;;;;76.42;21.10;;;;;;;9.26;74.33;100724.98;1893579;76;21063;-39
2023/03/26 01:04:29;;;;;;;78.52;22.13;;;;;;;9.26;74.36;100726.77;1893715;76;21116;-38
2023/03/26 01:06:59;;;;;;;;;;;;;;;9.24;74.50;100726.80;1896473;76;21562;-38
2023/03/26 01:09:31;;;;;;;62.30;18.30;;;;;;;9.24;74.35;100717.61;1893609;76;20104;-39
2023/03/26 01:12:02;;;;;;;68.20;19.35;;;;;;;9.24;74.26;100714.10;1893701;76;21078;-40
2023/03/26 01:14:31;;;;;;;62.35;18.67;;;;;;;9.24;74.29;100707.10;1893686;76;21042;-40
2023/03/26 01:17:03;;;;;;;64.82;19.60;;;;;;;9.26;74.30;100714.94;1893503;76;21031;-40
2023/03/26 01:20:00;;;;;;;66.35;17.82;;;;;;;9.27;74.29;100712.70;1893673;76;21050;-39
2023/03/26 01:22:28;;;;;;;59.38;16.80;;;;;;;9.30;74.32;100715.69;1893497;76;21129;-40
2023/03/26 01:24:56;;;;;;;51.42;15.93;;;;;;;9.28;74.29;100716.59;1893788;76;21062;-39
2023/03/26 01:27:34;;;;;;;49.42;15.03;;;;;;;9.20;74.44;100717.32;1893718;76;21114;-40
2023/03/26 01:30:15;;;;;;;54.80;14.95;;;;;;;9.06;74.98;100711.66;1893573;76;21152;-40
2023/03/26 01:33:12;;;;;;;67.17;16.07;;;;;;;8.92;75.37;100708.16;1890520;76;21082;-40
2023/03/26 01:35:56;;;;;;;43.98;12.98;;;;;;;8.88;75.27;100708.71;1893598;76;21054;-41
2023/03/26 01:38:29;;;;;;;;;;;;;;;8.89;75.12;100715.70;1896020;76;21055;-43
2023/03/26 01:41:00;;;;;;;39.83;11.73;;;;;;;8.91;75.03;100712.14;1893518;76;20116;-42
2023/03/26 01:43:37;;;;;;;41.25;12.68;;;;;;;8.81;75.19;100711.59;1893284;76;21070;-42
2023/03/26 01:46:10;;;;;;;35.65;11.85;;;;;;;8.75;75.19;100710.02;1893615;76;21074;-42
2023/03/26 01:48:41;;;;;;;53.25;15.75;;;;;;;8.76;75.08;100714.81;1893553;76;21082;-41
2023/03/26 01:51:12;;;;;;;41.42;13.40;;;;;;;8.74;75.17;100716.17;1893642;76;21120;-42
2023/03/26 01:53:48;;;;;;;34.23;12.03;;;;;;;8.75;75.26;100727.09;1893441;76;21117;-42
2023/03/26 01:56:36;;;;;;;41.70;12.43;;;;;;;8.74;75.32;100723.19;1893637;76;21595;-40
2023/03/26 01:59:11;;;;;;;27.02;7.53;;;;;;;8.74;75.23;100720.11;1893618;75;21098;-42
2023/03/26 02:02:08;;;;;;;28.92;8.75;;;;;;;8.73;75.24;100718.41;1893692;76;21112;-40
2023/03/26 02:05:04;;;;;;;33.42;10.95;;;;;;;8.72;75.26;100726.32;1893612;76;21070;-40
2023/03/26 02:07:39;;;;;;;38.02;11.65;;;;;;;8.71;75.21;100714.97;1893281;76;21038;-40
2023/03/26 02:10:16;;;;;;;38.65;11.38;;;;;;;8.75;75.12;100723.15;1893704;76;21588;-41
2023/03/26 02:12:46;;;;;;;38.17;13.35;;;;;;;8.73;75.46;100730.68;1893526;76;21140;-41
2023/03/26 02:15:16;;;;;;;41.55;12.60;;;;;;;8.67;75.68;100733.05;1893803;76;21558;-41
2023/03/26 02:17:45;;;;;;;31.62;11.05;;;;;;;8.67;75.70;100735.67;1893651;76;21551;-43
2023/03/26 02:20:17;;;;;;;37.00;11.68;;;;;;;8.65;75.78;100732.20;1893786;76;21477;-41
2023/03/26 02:22:47;;;;;;;30.92;10.78;;;;;;;8.66;75.72;100727.38;1893584;76;21152;-41
2023/03/26 02:25:20;;;;;;;30.35;10.58;;;;;;;8.66;75.83;100733.94;1893626;74;21106;-44
2023/03/26 02:27:51;;;;;;;38.00;11.78;;;;;;;8.61;75.93;100730.59;1893809;76;21543;-43
2023/03/26 02:30:24;;;;;;;29.92;9.85;;;;;;;8.56;76.11;100728.55;1893686;76;21050;-43
2023/03/26 02:32:57;;;;;;;37.28;11.68;;;;;;;8.61;75.95;100726.66;1893799;76;21086;-43
2023/03/26 02:35:25;;;;;;;33.88;11.45;;;;;;;8.66;75.78;100727.38;1893600;76;21102;-41
2023/03/26 02:37:55;;;;;;;33.80;11.78;;;;;;;8.70;75.72;100731.61;1893521;74;21156;-41
2023/03/26 02:40:24;;;;;;;36.58;12.33;;;;;;;8.73;75.68;100725.43;1893652;76;21050;-41
2023/03/26 02:42:54;;;;;;;34.10;11.75;;;;;;;8.75;75.61;100725.77;1893669;76;21090;-41
2023/03/26 02:45:23;;;;;;;39.40;12.60;;;;;;;8.78;75.60;100729.63;1893636;76;21074;-41
2023/03/26 02:48:06;;;;;;;41.35;11.25;;;;;;;8.77;75.61;100728.36;1870561;76;21555;-40
2023/03/26 02:50:40;;;;;;;36.03;12.28;;;;;;;8.77;75.67;100726.58;1893575;74;21098;-44
2023/03/26 02:53:28;;;;;;;34.10;11.85;;;;;;;8.77;75.70;100720.48;1880169;76;21098;-45
2023/03/26 02:55:59;;;;;;;30.65;10.20;;;;;;;8.76;75.62;100717.44;1893583;74;21169;-45
2023/03/26 02:58:29;;;;;;;31.73;10.45;;;;;;;8.78;75.52;100722.18;1890524;76;21509;-44
2023/03/26 03:01:01;;;;;;;32.88;9.73;;;;;;;8.77;75.50;100719.16;1893774;75;21223;-43
2023/03/26 03:03:30;;;;;;;31.93;11.35;;;;;;;8.78;75.54;100721.75;1892703;76;21102;-44
2023/03/26 03:06:04;;;;;;;30.65;10.38;;;;;;;8.81;75.48;100720.78;1893411;74;21069;-42
2023/03/26 03:08:40;;;;;;;42.95;12.88;;;;;;;8.80;75.45;100729.13;1893546;74;21126;-43
2023/03/26 03:11:16;;;;;;;37.23;10.82;;;;;;;8.80;75.44;100733.06;1884949;76;21171;-41
2023/03/26 03:13:46;;;;;;;28.30;10.18;;;;;;;8.81;75.43;100725.56;1893147;76;21114;-43
2023/03/26 03:16:28;;;;;;;33.95;11.15;;;;;;;8.81;75.33;100726.88;1893754;76;21086;-43
2023/03/26 03:18:58;;;;;;;34.70;9.95;;;;;;;8.80;75.24;100726.50;1893642;76;21070;-43
2023/03/26 03:21:29;;;;;;;30.90;11.70;;;;;;;8.81;75.31;100722.94;1892147;76;21118;-43
2023/03/26 03:23:58;;;;;;;33.90;10.30;;;;;;;8.81;75.53;100720.31;1893587;76;21484;-43
2023/03/26 03:26:28;;;;;;;35.78;10.90;;;;;;;8.81;75.57;100715.53;1893575;76;21086;-43
2023/03/26 03:28:58;;;;;;;37.08;12.30;;;;;;;8.80;75.44;100708.11;1893596;76;21047;-43
2023/03/26 03:31:27;;;;;;;39.23;13.20;;;;;;;8.79;75.40;100711.63;1893510;76;21125;-43
2023/03/26 03:33:57;;;;;;;39.08;12.23;;;;;;;8.78;75.36;100710.36;1893499;74;21167;-43
2023/03/26 03:36:29;;;;;;;38.05;12.60;;;;;;;8.67;75.55;100708.95;1893599;76;21082;-43
2023/03/26 03:39:01;;;;;;;39.20;12.30;;;;;;;8.63;75.76;100707.78;1892544;76;21143;-41
2023/03/26 03:41:30;;;;;;;35.65;12.75;;;;;;;8.59;75.89;100715.34;1893841;76;21094;-41
2023/03/26 03:44:00;;;;;;;28.92;8.38;;;;;;;8.54;76.08;100719.88;1893487;76;21086;-42
2023/03/26 03:46:30;;;;;;;31.45;9.75;;;;;;;8.42;76.43;100714.09;1893578;76;21184;-41
2023/03/26 03:48:59;;;;;;;30.95;11.35;;;;;;;8.38;76.45;100714.22;1893645;76;21121;-41
2023/03/26 03:51:30;;;;;;;34.58;11.18;;;;;;;8.33;76.51;100716.97;1893609;74;21099;-41
2023/03/26 03:54:03;;;;;;;32.08;11.43;;;;;;;8.25;76.65;100719.83;1893512;74;21548;-40
2023/03/26 03:56:49;;;;;;;34.18;11.63;;;;;;;8.22;76.78;100715.13;1893764;76;21510;-40
2023/03/26 03:59:23;;;;;;;36.68;11.60;;;;;;;8.14;76.95;100715.35;1893711;76;21087;-41
2023/03/26 04:01:52;;;;;;;27.02;9.93;;;;;;;8.15;76.97;100720.98;1893620;75;21114;-41
2023/03/26 04:04:28;;;;;;;35.48;10.85;;;;;;;8.14;76.99;100723.69;1891869;76;21133;-40
2023/03/26 04:06:58;;;;;;;39.78;11.18;;;;;;;8.12;76.98;100721.95;1893398;74;21168;-41
2023/03/26 04:09:28;;;;;;;25.92;10.18;;;;;;;8.18;76.83;100720.91;1893497;74;21169;-40
2023/03/26 04:11:59;;;;;;;33.08;10.10;;;;;;;8.14;77.01;100718.44;1893657;74;21165;-40
2023/03/26 04:14:29;;;;;;;35.85;10.93;;;;;;;8.10;76.98;100718.52;1892930;76;21564;-40
2023/03/26 04:17:04;;;;;;;27.67;10.80;;;;;;;8.18;77.03;100718.75;1893698;74;21106;-41
2023/03/26 04:19:33;;;;;;;32.60;11.75;;;;;;;8.27;76.83;100723.27;1893404;76;21066;-41
2023/03/26 04:22:02;;;;;;;25.57;10.35;;;;;;;8.32;76.69;100728.39;1893634;76;21144;-43
2023/03/26 04:24:33;;;;;;;26.85;7.83;;;;;;;8.33;76.63;100723.53;1893593;74;21118;-40
2023/03/26 04:27:24;;;;;;;20.77;6.03;;;;;;;8.33;76.56;100722.22;1893498;76;21083;-39
2023/03/26 04:29:53;;;;;;;27.80;9.08;;;;;;;8.29;76.44;100718.83;1893595;76;21116;-42
2023/03/26 04:32:29;;;;;;;30.00;10.20;;;;;;;8.21;76.61;100723.91;1893454;76;21114;-42
2023/03/26 04:35:02;;;;;;;29.20;8.85;;;;;;;8.20;76.66;100723.49;1893730;76;21067;-40
2023/03/26 04:37:33;;;;;;;;;;;;;;;8.20;76.73;100727.42;1896337;76;21151;-40
2023/03/26 04:40:09;;;;;;;27.32;8.58;;;;;;;8.18;76.56;100721.37;1892376;76;20142;-42
2023/03/26 04:42:47;;;;;;;28.05;9.30;;;;;;;8.14;76.61;100723.22;1890683;76;21555;-40
2023/03/26 04:45:22;;;;;;;37.20;10.48;;;;;;;8.11;76.72;100721.56;1892349;76;21501;-39
2023/03/26 04:47:52;;;;;;;21.40;6.40;;;;;;;8.17;76.67;100713.08;1893444;74;21098;-40
2023/03/26 04:50:21;;;;;;;25.62;8.73;;;;;;;8.16;76.81;100719.25;1893589;76;21125;-41
2023/03/26 04:52:51;;;;;;;27.32;9.25;;;;;;;8.16;76.71;100712.23;1893653;76;21441;-41
2023/03/26 04:55:36;;;;;;;28.02;8.60;;;;;;;8.12;76.82;100712.77;1889110;76;21170;-41
2023/03/26 04:58:06;;;;;;;24.35;7.70;;;;;;;8.08;77.10;100716.39;1892149;76;21069;-42
2023/03/26 05:00:36;;;;;;;24.27;7.65;;;;;;;8.17;76.95;100710.45;1890460;75;21065;-43
2023/03/26 05:03:05;;;;;;;26.57;7.75;;;;;;;8.25;76.82;100715.05;1893414;76;21521;-41
2023/03/26 05:05:33;;;;;;;28.02;10.10;;;;;;;8.27;76.83;100718.48;1893524;76;21046;-41
2023/03/26 05:08:04;;;;;;;56.77;9.75;;;;;;;8.31;76.73;100714.84;1893456;74;21073;-41
2023/03/26 05:10:33;;;;;;;24.35;8.43;;;;;;;8.34;76.73;100716.51;1893502;76;21472;-41
2023/03/26 05:13:03;;;;;;;23.47;8.68;;;;;;;8.38;76.74;100717.70;1892283;76;21081;-41
2023/03/26 05:15:34;;;;;;;15.85;5.92;;;;;;;8.48;76.61;100712.63;1892881;76;21279;-43
2023/03/26 05:18:11;;;;;;;11.43;4.95;;;;;;;8.52;76.71;100709.88;1881897;74;21070;-43
2023/03/26 05:20:48;;;;;;;11.80;4.75;;;;;;;8.56;76.70;100698.37;1893049;76;21500;-42
2023/03/26 05:23:16;;;;;;;17.23;5.78;;;;;;;8.60;76.57;100700.02;1893518;76;21051;-42
2023/03/26 05:25:53;;;;;;;17.60;7.03;;;;;;;8.65;76.46;100692.83;1892688;76;21489;-43
2023/03/26 05:28:25;;;;;;;18.45;6.47;;;;;;;8.71;76.38;100690.50;1893422;76;21196;-42
2023/03/26 05:30:55;;;;;;;24.80;6.10;;;;;;;8.74;76.36;100691.23;1893144;76;21564;-42
2023/03/26 05:33:25;;;;;;;20.27;6.35;;;;;;;8.83;76.31;100685.67;1893618;76;21583;-41
2023/03/26 05:36:04;;;;;;;15.60;5.62;;;;;;;8.99;76.08;100685.19;1891924;76;21537;-40
2023/03/26 05:38:34;;;;;;;15.60;6.08;;;;;;;9.09;75.98;100676.08;1893731;76;21575;-41
2023/03/26 05:41:07;;;;;;;17.67;5.92;;;;;;;9.07;76.00;100676.16;1893625;76;21039;-39
2023/03/26 05:43:36;;;;;;;18.55;7.60;;;;;;;9.13;75.96;100678.14;1893691;76;21027;-40
2023/03/26 05:46:09;;;;;;;19.42;7.17;;;;;;;9.19;75.90;100675.33;1892770;76;21091;-42
2023/03/26 05:48:38;;;;;;;20.72;6.25;;;;;;;9.28;75.79;100677.17;1893722;76;21094;-42
2023/03/26 05:51:08;;;;;;;13.68;5.15;;;;;;;9.42;75.58;100684.56;1893613;76;21086;-42
2023/03/26 05:53:38;;;;;;;16.37;5.75;;;;;;;9.44;75.48;100695.02;1893620;76;21070;-43
2023/03/26 05:56:25;;;;;;;18.25;6.78;;;;;;;9.42;75.59;100701.64;1893559;76;21066;-42
2023/03/26 05:58:57;;;;;;;18.67;7.03;;;;;;;9.38;75.54;100701.82;1873812;76;21496;-41
2023/03/26 06:01:43;;;;;;;21.48;7.97;;;;;;;9.36;75.46;100699.23;1893475;75;21090;-42
2023/03/26 06:04:30;;;;;;;19.37;6.75;;;;;;;9.45;75.33;100703.33;1893584;76;21540;-42
2023/03/26 06:07:01;;;;;;;21.00;7.05;;;;;;;9.58;75.17;100698.50;1884880;76;21172;-42
2023/03/26 06:09:30;;;;;;;19.37;7.70;;;;;;;9.76;75.01;100697.84;1893795;76;21513;-43
2023/03/26 06:11:59;;;;;;;24.72;11.03;;;;;;;9.80;74.90;100694.64;1893514;76;21054;-43
2023/03/26 06:14:29;;;;;;;23.70;8.30;;;;;;;9.78;74.79;100687.27;1893665;74;21103;-41
2023/03/26 06:17:03;;;;;;;27.00;13.40;;;;;;;9.79;74.76;100690.28;1886641;76;21165;-40
2023/03/26 06:19:33;;;;;;;23.75;9.48;;;;;;;9.87;74.72;100681.67;1893192;74;21108;-40
2023/03/26 06:22:04;;;;;;;24.02;9.30;;;;;;;9.95;74.56;100684.01;1891727;76;21098;-43
2023/03/26 06:24:34;;;;;;;31.00;18.45;;;;;;;10.05;74.47;100687.56;1890182;76;21839;-43
2023/03/26 06:27:14;;;;;;;24.07;9.23;;;;;;;10.08;74.32;100684.41;1859556;76;21093;-42
2023/03/26 06:29:47;;;;;;;23.30;11.70;;;;;;;10.11;74.33;100686.94;1893694;76;21542;-39
2023/03/26 06:32:21;;;;;;;19.67;7.67;;;;;;;10.36;74.26;100687.70;1893416;74;21091;-37
2023/03/26 06:34:54;;;;;;;13.85;5.47;;;;;;;10.73;73.73;100681.45;1891379;76;21532;-44
2023/03/26 06:37:23;;;;;;;14.13;6.15;;;;;;;11.48;73.43;100680.07;1893591;76;21109;-41
2023/03/26 06:39:53;;;;;;;13.70;6.15;;;;;;;12.13;73.27;100672.77;1892727;76;21165;-40
2023/03/26 06:42:23;;;;;;;15.23;6.12;;;;;;;12.49;72.65;100677.25;1891108;76;21597;-41
2023/03/26 06:44:53;;;;;;;13.00;5.97;;;;;;;13.06;72.36;100683.24;1893726;76;21184;-41
2023/03/26 06:47:39;;;;;;;13.58;6.08;;;;;;;13.60;71.98;100678.34;1828765;78;21194;-40
2023/03/26 06:50:26;;;;;;;14.03;6.10;;;;;;;14.03;71.00;100666.28;1880380;76;21295;-41
2023/03/26 06:52:57;;;;;;;11.68;5.00;;;;;;;15.02;70.91;100666.06;1874014;76;21103;-41
2023/03/26 06:55:33;;;;;;;9.45;4.87;;;;;;;15.88;69.21;100667.54;1890376;76;21113;-40
2023/03/26 06:58:03;;;;;;;12.85;5.25;;;;;;;16.75;66.87;100662.88;1892742;76;21235;-40
2023/03/26 07:00:41;;;;;;;8.95;4.92;;;;;;;17.56;66.03;100669.84;1848141;76;21267;-44
2023/03/26 07:03:27;;;;;;;13.85;5.45;;;;;;;18.50;63.92;100666.70;1871945;75;21077;-42
2023/03/26 07:06:15;;;;;;;14.10;5.97;;;;;;;19.44;61.82;100665.00;1842597;77;21699;-41
2023/03/26 07:09:00;;;;;;;10.03;4.87;;;;;;;20.35;60.67;100656.48;1758106;82;21122;-42
2023/03/26 07:11:47;;;;;;;12.65;6.05;;;;;;;20.91;57.87;100646.59;1814899;78;21177;-43
2023/03/26 07:14:24;;;;;;;12.37;6.42;;;;;;;21.43;56.37;100655.52;1792894;78;21150;-44
2023/03/26 07:16:54;;;;;;;11.80;6.05;;;;;;;22.04;55.13;100655.19;1784217;78;21491;-43
2023/03/26 07:19:25;;;;;;;10.80;5.53;;;;;;;22.46;53.44;100649.68;1845008;76;21133;-43
2023/03/26 07:21:54;;;;;;;9.80;5.15;;;;;;;22.82;52.01;100648.66;1860657;77;21105;-42
2023/03/26 07:24:34;;;;;;;8.38;3.92;;;;;;;23.16;50.97;100650.41;1856931;77;21095;-42
2023/03/26 07:27:07;;;;;;;8.10;4.37;;;;;;;23.52;49.32;100647.94;1859569;75;21102;-41
2023/03/26 07:30:01;;;;;;;8.23;4.67;;;;;;;23.73;48.19;100635.61;1860215;77;21184;-42
2023/03/26 07:32:49;;;;;;;8.60;4.40;;;;;;;24.08;47.43;100638.09;1858326;77;21157;-42
2023/03/26 07:35:34;;;;;;;9.68;5.05;;;;;;;24.30;46.31;100630.61;1853297;77;21525;-42
2023/03/26 07:38:18;;;;;;;8.83;4.60;;;;;;;24.27;44.74;100632.61;1860961;76;21110;-41
2023/03/26 07:41:25;;;;;;;10.88;5.35;;;;;;;24.38;45.20;100634.23;1860088;76;21045;-41
2023/03/26 07:44:32;;;;;;;12.85;5.85;;;;;;;24.83;44.59;100626.59;1768736;79;21591;-41
2023/03/26 07:47:24;;;;;;;9.90;5.67;;;;;;;25.36;43.98;100631.57;1795365;80;21569;-39
2023/03/26 07:50:01;;;;;;;10.70;5.33;;;;;;;25.51;40.70;100605.34;1874111;75;21619;-38
2023/03/26 07:52:38;;;;;;;7.78;4.45;;;;;;;25.30;41.37;100621.41;1864768;75;21046;-37
2023/03/26 07:55:10;;;;;;;7.28;3.90;;;;;;;25.67;40.81;100620.26;1862106;75;21102;-37
2023/03/26 07:57:59;;;;;;;10.82;5.25;;;;;;;25.85;39.58;100613.95;1820127;78;21595;-37
2023/03/26 08:00:49;;;;;;;10.32;4.90;;;;;;;26.16;39.87;100604.30;1847833;75;21158;-38
2023/03/26 08:03:27;;;;;;;8.38;4.58;;;;;;;26.65;39.61;100606.75;1888202;75;21156;-39
2023/03/26 08:06:21;;;;;;;6.03;2.62;;;;;;;26.71;38.17;100599.34;1875191;75;21069;-39
2023/03/26 08:09:00;;;;;;;5.12;1.90;;;;;;;26.46;35.02;100586.30;1863869;76;21610;-37
2023/03/26 08:12:01;;;;;;;5.08;2.67;;;;;;;25.89;35.41;100620.70;1866865;77;21073;-39
2023/03/26 08:14:51;;;;;;;8.15;2.90;;;;;;;25.61;34.91;100601.53;1866488;77;21042;-39
2023/03/26 08:17:44;;;;;;;3.52;2.40;;;;;;;25.03;34.42;100612.96;1865928;77;21500;-38
2023/03/26 08:20:29;;;;;;;4.80;2.20;;;;;;;24.47;35.07;100601.50;1865155;77;21168;-38
2023/03/26 08:23:03;;;;;;;5.30;2.45;;;;;;;24.17;35.87;100618.35;1866894;77;21212;-38
2023/03/26 08:25:53;;;;;;;6.72;2.65;;;;;;;23.69;36.19;100630.19;1854276;76;21288;-38
2023/03/26 08:28:27;;;;;;;4.95;2.33;;;;;;;23.50;36.59;100619.86;1866512;77;21606;-37
2023/03/26 08:30:56;;;;;;;5.95;2.80;;;;;;;23.88;36.60;100615.83;1840243;77;21050;-38
2023/03/26 08:33:27;;;;;;;6.42;2.80;;;;;;;24.17;36.23;100610.28;1866983;77;21058;-39
2023/03/26 08:35:55;;;;;;;5.17;1.98;;;;;;;24.34;35.75;100610.46;1866941;77;21109;-38
2023/03/26 08:38:24;;;;;;;4.12;2.33;;;;;;;24.31;35.45;100599.99;1866882;77;21163;-38
2023/03/26 08:41:18;;;;;;;6.97;2.02;;;;;;;24.40;35.46;100593.69;1866945;77;21156;-38
2023/03/26 08:44:12;;;;;;;4.72;2.15;;;;;;;24.30;35.24;100599.16;1866896;77;21131;-39
2023/03/26 08:47:03;;;;;;;6.00;2.40;;;;;;;24.32;35.67;100594.97;1866940;77;21081;-38
2023/03/26 08:49:56;;;;;;;7.30;3.20;;;;;;;24.55;35.53;100592.20;1866982;77;21050;-39
2023/03/26 08:53:02;;;;;;;3.52;1.57;;;;;;;24.62;35.14;100587.90;1866199;77;21567;-39
2023/03/26 08:55:44;;;;;;;4.95;2.45;;;;;;;23.97;35.63;100585.35;1866368;77;21528;-38
2023/03/26 08:58:35;;;;;;;3.02;1.72;;;;;;;23.53;36.43;100586.97;1865610;77;21058;-38
2023/03/26 09:01:23;;;;;;;4.00;2.35;;;;;;;23.47;36.56;100597.30;1866969;77;21079;-38
2023/03/26 09:04:04;;;;;;;3.83;2.52;;;;;;;22.45;37.23;100584.96;1865078;75;21611;-39
2023/03/26 09:06:57;;;;;;;7.60;2.80;;;;;;;20.95;39.13;100601.19;1860671;77;21497;-38
2023/03/26 09:10:01;;;;;;;14.03;4.60;;;;;;;19.96;40.78;100599.11;1859644;77;21204;-38
2023/03/26 09:12:50;;;;;;;3.98;1.72;;;;;;;19.20;42.31;100602.34;1860652;77;21042;-38
2023/03/26 09:15:41;;;;;;;2.22;1.45;;;;;;;20.10;41.95;100592.63;1860444;77;21570;-39
2023/03/26 09:18:28;;;;;;;4.95;2.15;;;;;;;20.83;40.92;100581.19;1860541;77;21070;-38
2023/03/26 09:21:02;;;;;;;2.20;1.32;;;;;;;21.49;40.13;100589.42;1860618;77;21046;-39
2023/03/26 09:23:40;;;;;;;5.08;2.52;;;;;;;22.43;39.28;100586.91;1858767;76;21619;-39
2023/03/26 09:26:31;;;;;;;4.50;2.47;;;;;;;23.12;37.77;100581.87;1860517;77;21050;-39
2023/03/26 09:29:12;;;;;;;2.92;1.27;;;;;;;23.27;37.35;100577.71;1859656;77;21132;-38
2023/03/26 09:32:15;;;;;;;2.27;1.40;;;;;;;23.18;37.43;100589.84;1860667;77;21050;-38
2023/03/26 09:34:53;;;;;;;4.67;2.58;;;;;;;23.53;36.71;100581.08;1860758;77;21531;-38
2023/03/26 09:37:58;;;;;;;1.85;1.30;;;;;;;23.81;36.33;100577.09;1858357;77;21053;-39
2023/03/26 09:40:51;;;;;;;15.15;1.60;;;;;;;23.53;36.27;100580.25;1860358;77;21110;-39
2023/03/26 09:43:38;;;;;;;2.65;1.65;;;;;;;23.38;35.88;100576.69;1860566;77;21046;-38
2023/03/26 09:46:31;;;;;;;3.72;1.67;;;;;;;22.91;36.17;100576.16;1860132;77;21058;-37
2023/03/26 09:49:05;;;;;;;19.60;2.65;;;;;;;22.92;36.26;100571.12;1860730;77;21119;-39
2023/03/26 09:51:52;;;;;;;3.08;1.12;;;;;;;22.42;36.65;100554.38;1860663;77;21124;-38
2023/03/26 09:54:24;;;;;;;3.33;1.67;;;;;;;22.45;37.24;100572.89;1859869;77;21051;-38
2023/03/26 09:56:57;;;;;;;3.52;1.60;;;;;;;22.50;37.00;100572.81;1858259;77;21545;-38
2023/03/26 09:59:34;;;;;;;1.72;1.27;;;;;;;22.47;37.13;100580.30;1859997;77;21062;-38
2023/03/26 10:02:24;;;;;;;2.60;1.17;;;;;;;22.24;37.08;100583.19;1860512;77;21078;-38
2023/03/26 10:05:03;;;;;;;2.55;1.40;;;;;;;21.86;37.69;100564.73;1863493;76;21598;-39
2023/03/26 10:07:35;;;;;;;2.60;1.20;;;;;;;21.63;38.05;100569.94;1811564;77;21135;-39
2023/03/26 10:10:29;;;;;;;4.28;1.25;;;;;;;21.28;38.24;100584.55;1865779;77;21022;-38
2023/03/26 10:13:01;;;;;;;3.30;1.00;;;;;;;21.14;38.95;100566.52;1866800;77;21045;-38
2023/03/26 10:16:01;;;;;;;2.42;1.05;;;;;;;21.38;38.87;100584.12;1865660;77;21050;-39
2023/03/26 10:18:45;;;;;;;3.70;1.40;;;;;;;21.42;38.81;100586.05;1866977;77;21046;-39
2023/03/26 10:21:36;;;;;;;1.62;1.02;;;;;;;20.87;39.28;100585.78;1866539;77;21571;-39
2023/03/26 10:24:13;;;;;;;3.40;1.15;;;;;;;20.20;40.16;100566.86;1866895;77;21524;-39
2023/03/26 10:27:00;;;;;;;3.05;1.47;;;;;;;18.89;42.45;100587.85;1865853;77;21105;-39
2023/03/26 10:29:46;;;;;;;3.62;0.98;;;;;;;18.48;43.64;100564.66;1866887;77;21140;-39
2023/03/26 10:32:27;;;;;;;2.27;1.25;;;;;;;18.43;44.19;100576.14;1866854;77;21109;-38
2023/03/26 10:34:58;;;;;;;2.92;1.10;;;;;;;18.54;44.25;100565.16;1866298;77;21112;-39
2023/03/26 10:37:45;;;;;;;2.33;1.22;;;;;;;18.97;43.95;100560.58;1867040;77;21616;-39
2023/03/26 10:40:29;;;;;;;4.85;1.57;;;;;;;19.42;43.27;100553.93;1768911;80;21099;-37
2023/03/26 10:43:24;;;;;;;6.53;1.30;;;;;;;19.60;42.95;100543.12;1846731;77;21164;-38
2023/03/26 10:46:04;;;;;;;4.08;1.57;;;;;;;19.58;42.66;100518.36;1866141;77;21082;-38
2023/03/26 10:49:03;;;;;;;3.52;1.92;;;;;;;19.28;43.02;100557.21;1867213;77;21508;-39
2023/03/26 10:51:35;;;;;;;3.83;1.20;;;;;;;19.22;43.49;100555.03;1867032;77;21049;-38
2023/03/26 10:54:09;;;;;;;4.90;1.40;;;;;;;19.32;43.35;100542.30;1867032;77;21116;-39
2023/03/26 10:56:48;;;;;;;9.40;3.25;;;;;;;19.21;43.64;100533.30;1866177;77;21073;-38
2023/03/26 10:59:17;;;;;;;6.25;1.80;;;;;;;19.27;43.42;100505.27;1866916;77;21560;-39
2023/03/26 11:01:56;;;;;;;5.72;1.27;;;;;;;18.99;43.79;100530.62;1865774;77;21082;-39
2023/03/26 11:04:43;;;;;;;8.78;2.08;;;;;;;18.75;44.37;100528.84;1867052;76;21112;-38
2023/03/26 11:07:45;;;;;;;16.50;2.52;;;;;;;18.62;44.59;100529.42;1865921;77;21066;-37
2023/03/26 11:10:32;;;;;;;3.60;1.47;;;;;;;18.52;44.93;100538.61;1866971;76;21086;-39
2023/03/26 11:13:18;;;;;;;2.77;1.50;;;;;;;18.63;45.27;100519.14;1864506;77;21057;-39
2023/03/26 11:16:05;;;;;;;4.17;1.60;;;;;;;18.45;45.38;100520.88;1866937;77;21128;-38
2023/03/26 11:19:03;;;;;;;1.52;0.98;;;;;;;18.24;45.82;100519.83;1867056;77;21465;-39
2023/03/26 11:21:38;;;;;;;11.35;1.90;;;;;;;18.10;46.44;100522.20;1866904;77;21128;-39
2023/03/26 11:24:28;;;;;;;4.80;1.40;;;;;;;17.53;47.13;100491.20;1865310;77;21155;-37
2023/03/26 11:27:02;;;;;;;3.02;1.90;;;;;;;17.25;48.04;100508.30;1866991;77;21544;-38
2023/03/26 11:29:34;;;;;;;5.58;2.02;;;;;;;17.17;48.78;100505.31;1866449;77;21123;-39
2023/03/26 11:32:11;;;;;;;6.08;1.55;;;;;;;17.16;48.81;100502.30;1866922;77;21548;-39
2023/03/26 11:34:46;;;;;;;4.00;1.37;;;;;;;17.08;48.89;100496.20;1866909;77;21050;-39
2023/03/26 11:37:20;;;;;;;5.28;1.77;;;;;;;16.79;49.31;100498.19;1865167;77;21097;-37
2023/03/26 11:39:55;;;;;;;2.80;1.40;;;;;;;16.40;50.47;100504.78;1866811;77;21046;-37
2023/03/26 11:42:25;;;;;;;2.80;1.15;;;;;;;16.04;51.51;100501.91;1866975;77;21057;-38
2023/03/26 11:44:57;;;;;;;3.22;1.12;;;;;;;15.83;52.19;100500.55;1866995;77;21540;-39
2023/03/26 11:47:28;;;;;;;3.30;1.82;;;;;;;15.66;52.74;100509.19;1866781;77;21096;-38
2023/03/26 11:49:58;;;;;;;3.77;1.70;;;;;;;15.37;53.73;100506.11;1806043;77;21054;-39
2023/03/26 11:52:27;;;;;;;10.45;4.00;;;;;;;15.33;54.00;100500.63;1867009;77;21053;-39
2023/03/26 11:54:58;;;;;;;14.33;3.72;;;;;;;15.38;54.08;100510.48;1866900;77;21057;-39
2023/03/26 11:57:32;;;;;;;8.48;3.30;;;;;;;15.44;54.02;100507.43;1867015;77;21054;-39
2023/03/26 12:00:09;;;;;;;3.90;1.72;;;;;;;15.32;54.51;100502.89;1866918;77;21140;-39
2023/03/26 12:02:40;;;;;;;3.67;1.20;;;;;;;15.30;54.69;100504.78;1865646;77;21233;-38
2023/03/26 12:05:25;;;;;;;3.15;1.37;;;;;;;15.13;55.29;100497.04;1866911;77;21120;-38
2023/03/26 12:07:59;;;;;;;4.00;1.50;;;;;;;14.95;55.85;100489.25;1867090;77;21085;-38